WZZ8VB LHBP-LIMF
Flight info
| Callsign | WZZ8VB |
|---|---|
| Flight time | 1h 26m |
| Altitude | 38000 |
| Route | GILEP DCT ZOLKU DCT SUNIS DCT GRZ DCT VILAK DCT DETSA/N0429F370 DCT BAKOR DCT NAXAV DCT RENTA DCT LUSIL DCT SRN DCT NELAB |
| Aircraft | A21N/M-SDE1E2E3FGIJ1J4RWXY/LB1 |
Departure
| Time | 2026-05-04 08:43 |
|---|---|
| Airport | Budapest Liszt Ferenc International Airport (LHBP) |
Arrival
| Time | 2026-05-04 10:09 |
|---|---|
| Airport | Turin Airport (LIMF) |
| Time | Latitude | Longitude | Altitude | Speed | Heading |
|---|---|---|---|---|---|
| 2026-05-04 08:12 | 47.43516 | 19.26482 | 475 ft | 0 kts | 221° |
| 2026-05-04 08:33 | 47.43533 | 19.26559 | 474 ft | 1 kts | 308° |
| 2026-05-04 08:33 | 47.43528 | 19.26565 | 474 ft | 1 kts | 315° |
| 2026-05-04 08:35 | 47.43527 | 19.26568 | 474 ft | 0 kts | 313° |
| 2026-05-04 08:40 | 47.43787 | 19.26399 | 477 ft | 14 kts | 334° |
| 2026-05-04 08:40 | 47.43866 | 19.26288 | 478 ft | 18 kts | 311° |
| 2026-05-04 08:40 | 47.43967 | 19.26122 | 479 ft | 23 kts | 313° |
| 2026-05-04 08:41 | 47.44079 | 19.25938 | 483 ft | 23 kts | 312° |
| 2026-05-04 08:41 | 47.44186 | 19.25769 | 485 ft | 21 kts | 312° |
| 2026-05-04 08:41 | 47.44281 | 19.25615 | 488 ft | 19 kts | 319° |
| 2026-05-04 08:41 | 47.44395 | 19.25547 | 491 ft | 16 kts | 15° |
| 2026-05-04 08:42 | 47.44486 | 19.25641 | 494 ft | 16 kts | 49° |
| 2026-05-04 08:42 | 47.44482 | 19.25854 | 491 ft | 32 kts | 131° |
| 2026-05-04 08:42 | 47.44211 | 19.26288 | 483 ft | 93 kts | 133° |
| 2026-05-04 08:42 | 47.43615 | 19.27242 | 462 ft | 156 kts | 133° |
| 2026-05-04 08:43 | 47.42839 | 19.28534 | 869 ft | 173 kts | 134° |
| 2026-05-04 08:43 | 47.42056 | 19.29864 | 1662 ft | 172 kts | 131° |
| 2026-05-04 08:43 | 47.41392 | 19.31301 | 2404 ft | 172 kts | 122° |
| 2026-05-04 08:43 | 47.40794 | 19.32876 | 2799 ft | 184 kts | 131° |
| 2026-05-04 08:44 | 47.39677 | 19.33782 | 3110 ft | 195 kts | 176° |
| 2026-05-04 08:44 | 47.38374 | 19.33138 | 3435 ft | 212 kts | 219° |
| 2026-05-04 08:46 | 47.39789 | 19.15407 | 7889 ft | 282 kts | 278° |
| 2026-05-04 08:46 | 47.40094 | 19.12578 | 8664 ft | 286 kts | 277° |
| 2026-05-04 08:46 | 47.40395 | 19.09662 | 9443 ft | 291 kts | 277° |
| 2026-05-04 08:46 | 47.40693 | 19.06702 | 10205 ft | 295 kts | 277° |
| 2026-05-04 08:47 | 47.40993 | 19.03688 | 10744 ft | 308 kts | 277° |
| 2026-05-04 08:47 | 47.41305 | 19.00514 | 11304 ft | 318 kts | 278° |
| 2026-05-04 08:47 | 47.41625 | 18.97261 | 12041 ft | 322 kts | 278° |
| 2026-05-04 08:47 | 47.41947 | 18.93961 | 12786 ft | 326 kts | 278° |
| 2026-05-04 08:48 | 47.42268 | 18.90667 | 13516 ft | 328 kts | 278° |
| 2026-05-04 08:48 | 47.42589 | 18.87357 | 14252 ft | 331 kts | 278° |
| 2026-05-04 08:48 | 47.42916 | 18.83967 | 14959 ft | 334 kts | 278° |
| 2026-05-04 08:48 | 47.43243 | 18.80561 | 15639 ft | 337 kts | 278° |
| 2026-05-04 08:49 | 47.43568 | 18.77166 | 16301 ft | 340 kts | 278° |
| 2026-05-04 08:50 | 47.45571 | 18.55972 | 20020 ft | 357 kts | 279° |
| 2026-05-04 08:50 | 47.45913 | 18.52332 | 20601 ft | 359 kts | 279° |
| 2026-05-04 08:51 | 47.46250 | 18.48715 | 21163 ft | 362 kts | 279° |
| 2026-05-04 08:51 | 47.46592 | 18.45031 | 21727 ft | 364 kts | 279° |
| 2026-05-04 08:51 | 47.46931 | 18.41355 | 22273 ft | 366 kts | 279° |
| 2026-05-04 08:51 | 47.47273 | 18.37637 | 22813 ft | 368 kts | 279° |
| 2026-05-04 08:52 | 47.47616 | 18.33893 | 23328 ft | 371 kts | 278° |
| 2026-05-04 08:52 | 47.47963 | 18.30099 | 23822 ft | 373 kts | 278° |
| 2026-05-04 08:52 | 47.48355 | 18.26294 | 24301 ft | 376 kts | 281° |
| 2026-05-04 08:52 | 47.48896 | 18.22542 | 24772 ft | 378 kts | 284° |
| 2026-05-04 08:53 | 47.49517 | 18.18748 | 25239 ft | 380 kts | 285° |
| 2026-05-04 08:54 | 47.53960 | 17.91756 | 28208 ft | 394 kts | 285° |
| 2026-05-04 08:55 | 47.54596 | 17.87843 | 28596 ft | 396 kts | 285° |
| 2026-05-04 08:55 | 47.55029 | 17.83815 | 28951 ft | 401 kts | 275° |
| 2026-05-04 08:55 | 47.54931 | 17.79688 | 29296 ft | 406 kts | 265° |
| 2026-05-04 08:55 | 47.54308 | 17.75660 | 29645 ft | 411 kts | 254° |
| 2026-05-04 08:57 | 47.46571 | 17.47905 | 32174 ft | 424 kts | 250° |
| 2026-05-04 09:01 | 47.30557 | 16.91387 | 36688 ft | 428 kts | 249° |
| 2026-05-04 09:01 | 47.29401 | 16.87358 | 36952 ft | 428 kts | 249° |
| 2026-05-04 09:01 | 47.28246 | 16.83337 | 37223 ft | 429 kts | 249° |
| 2026-05-04 09:01 | 47.27085 | 16.79306 | 37489 ft | 430 kts | 249° |
| 2026-05-04 09:02 | 47.25919 | 16.75259 | 37720 ft | 431 kts | 249° |
| 2026-05-04 09:02 | 47.24743 | 16.71188 | 37928 ft | 432 kts | 249° |
| 2026-05-04 09:02 | 47.23581 | 16.67171 | 38062 ft | 434 kts | 249° |
| 2026-05-04 09:03 | 47.21211 | 16.58999 | 38061 ft | 434 kts | 249° |
| 2026-05-04 09:03 | 47.18862 | 16.50926 | 38074 ft | 433 kts | 249° |
| 2026-05-04 09:04 | 47.16489 | 16.42803 | 38068 ft | 433 kts | 249° |
| 2026-05-04 09:04 | 47.14217 | 16.34653 | 38074 ft | 432 kts | 252° |
| 2026-05-04 09:05 | 47.12433 | 16.26314 | 38070 ft | 431 kts | 255° |
| 2026-05-04 09:05 | 47.10729 | 16.17946 | 38063 ft | 430 kts | 255° |
| 2026-05-04 09:06 | 47.09014 | 16.09564 | 38057 ft | 430 kts | 255° |
| 2026-05-04 09:08 | 47.02112 | 15.76206 | 38067 ft | 429 kts | 255° |
| 2026-05-04 09:08 | 47.00375 | 15.67901 | 38068 ft | 428 kts | 255° |
| 2026-05-04 09:09 | 46.98620 | 15.59536 | 38070 ft | 429 kts | 255° |
| 2026-05-04 09:09 | 46.96876 | 15.51269 | 38069 ft | 429 kts | 255° |
| 2026-05-04 09:10 | 46.95216 | 15.42931 | 38067 ft | 427 kts | 258° |
| 2026-05-04 09:10 | 46.93844 | 15.34481 | 38073 ft | 427 kts | 258° |
| 2026-05-04 09:11 | 46.92477 | 15.26064 | 38072 ft | 426 kts | 258° |
| 2026-05-04 09:11 | 46.91112 | 15.17703 | 38080 ft | 426 kts | 258° |
| 2026-05-04 09:12 | 46.89734 | 15.09310 | 38095 ft | 425 kts | 258° |
| 2026-05-04 09:14 | 46.84186 | 14.75940 | 38105 ft | 425 kts | 257° |
| 2026-05-04 09:14 | 46.82774 | 14.67549 | 38101 ft | 425 kts | 257° |
| 2026-05-04 09:15 | 46.81360 | 14.59198 | 38099 ft | 425 kts | 257° |
| 2026-05-04 09:15 | 46.79953 | 14.50917 | 38100 ft | 425 kts | 257° |
| 2026-05-04 09:17 | 46.74677 | 14.13069 | 37097 ft | 426 kts | 261° |
| 2026-05-04 09:18 | 46.73645 | 14.04604 | 37105 ft | 426 kts | 261° |
| 2026-05-04 09:18 | 46.72603 | 13.96150 | 37112 ft | 426 kts | 260° |
| 2026-05-04 09:19 | 46.71556 | 13.87678 | 37120 ft | 426 kts | 261° |
| 2026-05-04 09:19 | 46.70519 | 13.79201 | 37131 ft | 426 kts | 260° |
| 2026-05-04 09:20 | 46.69471 | 13.70715 | 37133 ft | 426 kts | 260° |
| 2026-05-04 09:20 | 46.68424 | 13.62300 | 37136 ft | 426 kts | 260° |
| 2026-05-04 09:21 | 46.67363 | 13.53829 | 37137 ft | 426 kts | 260° |
| 2026-05-04 09:21 | 46.66304 | 13.45423 | 37136 ft | 426 kts | 260° |
| 2026-05-04 09:22 | 46.65226 | 13.36927 | 37134 ft | 426 kts | 260° |
| 2026-05-04 09:22 | 46.64147 | 13.28481 | 37128 ft | 426 kts | 259° |
| 2026-05-04 09:23 | 46.63067 | 13.20069 | 37120 ft | 425 kts | 259° |
| 2026-05-04 09:23 | 46.61980 | 13.11664 | 37115 ft | 425 kts | 259° |
| 2026-05-04 09:25 | 46.57563 | 12.77988 | 37142 ft | 425 kts | 259° |
| 2026-05-04 09:26 | 46.56446 | 12.69597 | 37138 ft | 426 kts | 259° |
| 2026-05-04 09:26 | 46.55315 | 12.61157 | 37139 ft | 425 kts | 259° |
| 2026-05-04 09:27 | 46.54186 | 12.52786 | 37141 ft | 425 kts | 259° |
| 2026-05-04 09:27 | 46.53055 | 12.44445 | 37140 ft | 425 kts | 259° |
| 2026-05-04 09:28 | 46.51906 | 12.36032 | 37138 ft | 425 kts | 259° |
| 2026-05-04 09:28 | 46.50755 | 12.27617 | 37136 ft | 425 kts | 258° |
| 2026-05-04 09:29 | 46.49604 | 12.19261 | 37134 ft | 426 kts | 258° |
| 2026-05-04 09:29 | 46.48442 | 12.10871 | 37131 ft | 426 kts | 258° |
| 2026-05-04 09:30 | 46.47272 | 12.02481 | 37129 ft | 426 kts | 258° |
| 2026-05-04 09:30 | 46.46091 | 11.94068 | 37133 ft | 426 kts | 258° |
| 2026-05-04 09:31 | 46.44905 | 11.85670 | 37130 ft | 426 kts | 258° |
| 2026-05-04 09:31 | 46.43718 | 11.77313 | 37129 ft | 425 kts | 258° |
| 2026-05-04 09:32 | 46.42530 | 11.68969 | 37133 ft | 425 kts | 258° |
| 2026-05-04 09:34 | 46.37694 | 11.35541 | 37115 ft | 425 kts | 258° |
| 2026-05-04 09:34 | 46.36488 | 11.27147 | 37094 ft | 426 kts | 257° |
| 2026-05-04 09:35 | 46.35290 | 11.18789 | 37101 ft | 426 kts | 257° |
| 2026-05-04 09:35 | 46.34089 | 11.10474 | 37113 ft | 426 kts | 257° |
| 2026-05-04 09:37 | 46.28815 | 10.81660 | 37116 ft | 425 kts | 246° |
| 2026-05-04 09:37 | 46.27583 | 10.77823 | 37116 ft | 425 kts | 243° |
| 2026-05-04 09:38 | 46.24937 | 10.70211 | 37121 ft | 425 kts | 243° |
| 2026-05-04 09:38 | 46.22281 | 10.62601 | 37116 ft | 424 kts | 243° |
| 2026-05-04 09:39 | 46.19626 | 10.55014 | 37116 ft | 425 kts | 243° |
| 2026-05-04 09:39 | 46.16976 | 10.47462 | 37131 ft | 425 kts | 243° |
| 2026-05-04 09:40 | 46.14304 | 10.39866 | 37133 ft | 424 kts | 243° |
| 2026-05-04 09:40 | 46.11645 | 10.32331 | 37143 ft | 424 kts | 243° |
| 2026-05-04 09:42 | 46.00932 | 10.02167 | 37147 ft | 424 kts | 243° |
| 2026-05-04 09:43 | 45.98248 | 9.94646 | 37146 ft | 424 kts | 243° |
| 2026-05-04 09:43 | 45.95554 | 9.87119 | 37155 ft | 424 kts | 243° |
| 2026-05-04 09:44 | 45.92871 | 9.79646 | 37143 ft | 424 kts | 243° |
| 2026-05-04 09:46 | 45.82079 | 9.49801 | 37123 ft | 422 kts | 243° |
| 2026-05-04 09:46 | 45.79369 | 9.42359 | 37122 ft | 421 kts | 243° |
| 2026-05-04 09:47 | 45.76661 | 9.34943 | 37107 ft | 421 kts | 242° |
| 2026-05-04 09:49 | 45.66580 | 9.09298 | 33245 ft | 431 kts | 238° |
| 2026-05-04 09:49 | 45.65046 | 9.05653 | 32349 ft | 426 kts | 238° |
| 2026-05-04 09:49 | 45.63551 | 9.02097 | 31466 ft | 421 kts | 238° |
| 2026-05-04 09:51 | 45.54880 | 8.81483 | 26217 ft | 391 kts | 238° |
| 2026-05-04 09:51 | 45.53496 | 8.78203 | 25398 ft | 386 kts | 238° |
| 2026-05-04 09:51 | 45.52128 | 8.74962 | 24580 ft | 381 kts | 238° |
| 2026-05-04 09:51 | 45.50767 | 8.71741 | 23766 ft | 376 kts | 238° |
| 2026-05-04 09:52 | 45.49431 | 8.68586 | 22959 ft | 372 kts | 238° |
| 2026-05-04 09:52 | 45.48116 | 8.65485 | 22175 ft | 368 kts | 237° |
| 2026-05-04 09:52 | 45.46812 | 8.62414 | 21401 ft | 364 kts | 238° |
| 2026-05-04 09:52 | 45.45518 | 8.59367 | 20674 ft | 359 kts | 238° |
| 2026-05-04 09:53 | 45.44239 | 8.56358 | 20130 ft | 349 kts | 238° |
| 2026-05-04 09:53 | 45.43004 | 8.53456 | 19655 ft | 339 kts | 238° |
| 2026-05-04 09:53 | 45.41806 | 8.50642 | 19207 ft | 330 kts | 238° |
| 2026-05-04 09:53 | 45.40628 | 8.47882 | 18767 ft | 327 kts | 238° |
| 2026-05-04 09:54 | 45.39454 | 8.45133 | 18329 ft | 325 kts | 238° |
| 2026-05-04 09:54 | 45.38287 | 8.42403 | 17939 ft | 323 kts | 238° |
| 2026-05-04 09:54 | 45.37116 | 8.39664 | 17523 ft | 321 kts | 238° |
| 2026-05-04 09:54 | 45.35970 | 8.36989 | 17132 ft | 320 kts | 238° |
| 2026-05-04 09:55 | 45.34816 | 8.34294 | 16698 ft | 319 kts | 237° |
| 2026-05-04 09:55 | 45.33673 | 8.31632 | 16271 ft | 317 kts | 237° |
| 2026-05-04 09:55 | 45.32527 | 8.28961 | 15875 ft | 316 kts | 237° |
| 2026-05-04 09:55 | 45.31388 | 8.26313 | 15446 ft | 315 kts | 237° |
| 2026-05-04 09:56 | 45.30258 | 8.23687 | 15031 ft | 314 kts | 237° |
| 2026-05-04 09:56 | 45.29120 | 8.21048 | 14631 ft | 312 kts | 237° |
| 2026-05-04 09:56 | 45.27992 | 8.18434 | 14191 ft | 311 kts | 237° |
| 2026-05-04 09:56 | 45.26865 | 8.15820 | 13770 ft | 309 kts | 237° |
| 2026-05-04 09:57 | 45.25755 | 8.13238 | 13510 ft | 302 kts | 238° |
| 2026-05-04 09:57 | 45.24895 | 8.10611 | 13385 ft | 291 kts | 249° |
| 2026-05-04 09:57 | 45.24386 | 8.07861 | 13043 ft | 290 kts | 257° |
| 2026-05-04 09:57 | 45.24041 | 8.05035 | 12687 ft | 290 kts | 258° |
| 2026-05-04 09:58 | 45.23723 | 8.02248 | 12310 ft | 289 kts | 258° |
| 2026-05-04 09:58 | 45.23401 | 7.99433 | 11923 ft | 288 kts | 258° |
| 2026-05-04 09:58 | 45.23078 | 7.96636 | 11578 ft | 288 kts | 258° |
| 2026-05-04 10:00 | 45.19041 | 7.79133 | 9346 ft | 250 kts | 195° |
| 2026-05-04 10:00 | 45.17358 | 7.78833 | 8966 ft | 248 kts | 180° |
| 2026-05-04 10:02 | 45.05486 | 7.78143 | 6605 ft | 241 kts | 181° |
| 2026-05-04 10:04 | 44.97261 | 7.70524 | 3978 ft | 249 kts | 274° |
| 2026-05-04 10:04 | 44.97373 | 7.68174 | 3950 ft | 234 kts | 273° |
| 2026-05-04 10:04 | 44.97642 | 7.65944 | 3927 ft | 229 kts | 296° |
| 2026-05-04 10:04 | 44.98643 | 7.64266 | 3937 ft | 227 kts | 329° |
| 2026-05-04 10:05 | 45.00113 | 7.63600 | 3946 ft | 225 kts | 358° |
| 2026-05-04 10:05 | 45.01673 | 7.63645 | 3947 ft | 224 kts | 6° |
| 2026-05-04 10:05 | 45.03244 | 7.63842 | 3892 ft | 222 kts | 6° |
| 2026-05-04 10:05 | 45.04756 | 7.64002 | 3661 ft | 219 kts | 5° |
| 2026-05-04 10:06 | 45.06288 | 7.64117 | 3369 ft | 218 kts | 4° |
| 2026-05-04 10:06 | 45.07787 | 7.64206 | 3139 ft | 213 kts | 4° |
| 2026-05-04 10:06 | 45.09236 | 7.64289 | 2885 ft | 206 kts | 4° |
| 2026-05-04 10:08 | 45.16242 | 7.64720 | 1487 ft | 146 kts | 4° |
| 2026-05-04 10:08 | 45.17248 | 7.64782 | 1302 ft | 144 kts | 4° |
| 2026-05-04 10:08 | 45.18250 | 7.64828 | 1096 ft | 145 kts | 5° |
| 2026-05-04 10:08 | 45.19259 | 7.64907 | 962 ft | 143 kts | 4° |
| 2026-05-04 10:09 | 45.20132 | 7.64965 | 971 ft | 91 kts | 5° |
| 2026-05-04 10:09 | 45.20513 | 7.64990 | 978 ft | 38 kts | 4° |
| 2026-05-04 10:09 | 45.20740 | 7.65006 | 985 ft | 29 kts | 3° |
| 2026-05-04 10:09 | 45.20864 | 7.64921 | 988 ft | 18 kts | 292° |
| 2026-05-04 10:10 | 45.20842 | 7.64776 | 990 ft | 15 kts | 223° |
| 2026-05-04 10:10 | 45.20731 | 7.64738 | 989 ft | 19 kts | 182° |
| 2026-05-04 10:10 | 45.20577 | 7.64727 | 985 ft | 25 kts | 183° |
| 2026-05-04 10:10 | 45.20391 | 7.64721 | 983 ft | 26 kts | 184° |
| 2026-05-04 10:11 | 45.20209 | 7.64707 | 980 ft | 26 kts | 184° |
| 2026-05-04 10:11 | 45.20026 | 7.64694 | 977 ft | 26 kts | 182° |
| 2026-05-04 10:11 | 45.19840 | 7.64683 | 973 ft | 25 kts | 182° |
| 2026-05-04 10:11 | 45.19667 | 7.64694 | 969 ft | 25 kts | 185° |
| 2026-05-04 10:12 | 45.19487 | 7.64686 | 963 ft | 26 kts | 181° |
| 2026-05-04 10:12 | 45.19307 | 7.64678 | 959 ft | 15 kts | 185° |
| 2026-05-04 10:12 | 45.19227 | 7.64607 | 958 ft | 13 kts | 260° |
| 2026-05-04 10:12 | 45.19218 | 7.64530 | 959 ft | 0 kts | 258° |